Normand Flipper — 9V6929 — position and weather

sailwx.info

Track history (hours):
 
Tides and Currents Weather Stations Pressure Air Temp Water Temp Dewpoint Dewpoint Depression Visibility Wind Speed Wind Dir Waves Ship Positions

Normand Flipper

Last reported at 2015-Jul-30 02:15 UTC. Time now 2015-Jul-30 08:11 UTC.
Position N 38°23' E 003°02'.

Length 89 m; draft 4.6 m.

Type: Cargo ship. MMSI: 566522000.

Date/timePositionNaut miles runAvg speedWind from/ knotsBaromVisibWave heightAir tempDewpointWater temp
2015-Jul-30 02:15N 38°23' E 003°02'9510.8
2015-Jul-29 17:26N 38°24' E 005°04'16110.1
2015-Jul-29 01:28N 38°25' E 008°29'6310.2
2015-Jul-28 19:21N 38°26' E 009°48'910.0
2015-Jul-28 18:29N 38°26' E 009°59'13 9.7
2015-Jul-28 17:06N 38°27' E 010°17'11710.0
2015-Jul-28 05:28N 38°28' E 012°46'910.1
2015-Jul-28 04:34N 38°28' E 012°57'1010.0
2015-Jul-28 03:33N 38°28' E 013°10'1010.0
2015-Jul-28 02:33N 38°28' E 013°23'1010.2
2015-Jul-28 01:34N 38°27' E 013°36'1110.4
2015-Jul-28 00:31N 38°25' E 013°50'3410.3
2015-Jul-27 21:14N 38°22' E 014°32'710.1
2015-Jul-27 20:33N 38°21' E 014°41'1010.5
2015-Jul-27 19:33N 38°21' E 014°54'1110.7
2015-Jul-27 18:33N 38°21' E 015°08'1010.3
2015-Jul-27 17:33N 38°21' E 015°21'10 9.8
2015-Jul-27 16:33N 38°21' E 015°34'8 7.9
2015-Jul-27 15:33N 38°15' E 015°40'9 9.5
2015-Jul-27 14:33N 38°06' E 015°36'10 9.7
2015-Jul-27 13:33N 37°57' E 015°38'1510.3
2015-Jul-27 12:06N 37°51' E 015°55'363 9.9
2015-Jul-25 23:33N 36°35' E 023°21'1110.7
2015-Jul-25 22:33N 36°44' E 023°28'1010.3
2015-Jul-25 21:33N 36°53' E 023°35'1010.1
2015-Jul-25 20:33N 37°01' E 023°42'1010.3
2015-Jul-25 19:33N 37°10' E 023°48'1010.0
2015-Jul-25 18:33N 37°19' E 023°55'1110.5
2015-Jul-25 17:33N 37°28' E 024°02'10 9.5
2015-Jul-25 16:32N 37°36' E 024°08'29310.0
2015-Jul-24 11:11N 40°54' E 028°47'710.0
2015-Jul-24 10:29N 40°57' E 028°55'  
Track history (hours):
 
Tides and Currents Weather Stations Pressure Air Temp Water Temp Dewpoint Dewpoint Depression Visibility Wind Speed Wind Dir Waves Ship Positions

Normand Flipper

Last reported at 2015-Jul-30 02:15 UTC. Time now 2015-Jul-30 08:11 UTC.
Position N 38°23' E 003°02'.

Length 89 m; draft 4.6 m.

Type: Cargo ship. MMSI: 566522000.

Date/timePositionNaut miles runAvg speedWind from/ knotsBaromVisibWave heightAir tempDewpointWater temp
2015-Jul-30 02:15N 38°23' E 003°02'9510.8
2015-Jul-29 17:26N 38°24' E 005°04'16110.1
2015-Jul-29 01:28N 38°25' E 008°29'6310.2
2015-Jul-28 19:21N 38°26' E 009°48'910.0
2015-Jul-28 18:29N 38°26' E 009°59'13 9.7
2015-Jul-28 17:06N 38°27' E 010°17'11710.0
2015-Jul-28 05:28N 38°28' E 012°46'910.1
2015-Jul-28 04:34N 38°28' E 012°57'1010.0
2015-Jul-28 03:33N 38°28' E 013°10'1010.0
2015-Jul-28 02:33N 38°28' E 013°23'1010.2
2015-Jul-28 01:34N 38°27' E 013°36'1110.4
2015-Jul-28 00:31N 38°25' E 013°50'3410.3
2015-Jul-27 21:14N 38°22' E 014°32'710.1
2015-Jul-27 20:33N 38°21' E 014°41'1010.5
2015-Jul-27 19:33N 38°21' E 014°54'1110.7
2015-Jul-27 18:33N 38°21' E 015°08'1010.3
2015-Jul-27 17:33N 38°21' E 015°21'10 9.8
2015-Jul-27 16:33N 38°21' E 015°34'8 7.9
2015-Jul-27 15:33N 38°15' E 015°40'9 9.5
2015-Jul-27 14:33N 38°06' E 015°36'10 9.7
2015-Jul-27 13:33N 37°57' E 015°38'1510.3
2015-Jul-27 12:06N 37°51' E 015°55'363 9.9
2015-Jul-25 23:33N 36°35' E 023°21'1110.7
2015-Jul-25 22:33N 36°44' E 023°28'1010.3
2015-Jul-25 21:33N 36°53' E 023°35'1010.1
2015-Jul-25 20:33N 37°01' E 023°42'1010.3
2015-Jul-25 19:33N 37°10' E 023°48'1010.0
2015-Jul-25 18:33N 37°19' E 023°55'1110.5
2015-Jul-25 17:33N 37°28' E 024°02'10 9.5
2015-Jul-25 16:32N 37°36' E 024°08'29310.0
2015-Jul-24 11:11N 40°54' E 028°47'710.0
2015-Jul-24 10:29N 40°57' E 028°55'  

Dump ship's entire track history